createdAt,value
2019-04-27T00:03:13.323Z,14.20
2019-04-27T00:08:39.173Z,14.02
2019-04-27T00:13:44.504Z,13.87
2019-04-27T00:18:54.847Z,13.68
2019-04-27T00:23:57.035Z,13.48
2019-04-27T00:29:01.574Z,13.25
2019-04-27T00:34:06.172Z,13.11
2019-04-27T00:39:31.002Z,12.98
2019-04-27T00:44:35.713Z,12.98
2019-04-27T00:49:40.361Z,12.91
2019-04-27T00:54:44.834Z,12.88
2019-04-27T00:59:54.058Z,12.86
2019-04-27T01:04:58.859Z,12.84
2019-04-27T01:10:05.312Z,12.81
2019-04-27T01:15:10.330Z,12.80
2019-04-27T01:20:15.001Z,12.72
2019-04-27T01:25:21.791Z,12.69
2019-04-27T01:30:30.581Z,12.54
2019-04-27T01:35:34.995Z,12.42
2019-04-27T01:40:39.508Z,12.36
2019-04-27T01:45:44.760Z,12.33
2019-04-27T01:50:49.428Z,12.32
2019-04-27T01:55:53.971Z,12.33
2019-04-27T02:01:03.198Z,12.38
2019-04-27T02:06:09.191Z,12.38
2019-04-27T02:11:13.840Z,12.37
2019-04-27T02:16:18.813Z,12.36
2019-04-27T02:21:23.687Z,12.35
2019-04-27T02:26:29.922Z,12.35
2019-04-27T02:31:45.252Z,12.33
2019-04-27T02:36:50.301Z,12.33
2019-04-27T02:41:56.619Z,12.33
2019-04-27T02:47:01.208Z,12.34
2019-04-27T02:52:09.526Z,12.31
2019-04-27T02:57:14.231Z,12.28
2019-04-27T03:02:20.365Z,12.23
2019-04-27T03:07:25.004Z,12.17
2019-04-27T03:12:31.167Z,12.12
2019-04-27T03:17:39.598Z,12.09
2019-04-27T03:22:45.150Z,12.06
2019-04-27T03:27:51.304Z,12.00
2019-04-27T03:32:57.575Z,11.91
2019-04-27T03:38:02.702Z,11.82
2019-04-27T03:43:09.931Z,11.73
2019-04-27T03:48:15.617Z,11.68
2019-04-27T03:53:23.297Z,11.65
2019-04-27T03:58:35.714Z,11.63
2019-04-27T04:03:40.435Z,11.54
2019-04-27T04:08:45.041Z,11.42
2019-04-27T04:13:51.249Z,11.39
2019-04-27T04:18:57.414Z,11.32
2019-04-27T04:24:02.154Z,11.26
2019-04-27T04:29:06.751Z,11.27
2019-04-27T04:34:12.192Z,11.21
2019-04-27T04:39:19.588Z,11.18
2019-04-27T04:44:31.140Z,11.15
2019-04-27T04:49:35.594Z,11.10
2019-04-27T04:54:40.883Z,11.08
2019-04-27T04:59:45.583Z,11.06
2019-04-27T05:04:50.018Z,11.03
2019-04-27T05:09:54.483Z,11.03
2019-04-27T05:14:59.194Z,10.97
2019-04-27T05:20:06.881Z,10.92
2019-04-27T05:25:11.405Z,10.89
2019-04-27T05:30:15.865Z,10.91
2019-04-27T05:35:20.465Z,10.86
2019-04-27T05:40:24.937Z,10.80
2019-04-27T05:45:36.885Z,10.77
2019-04-27T05:50:45.596Z,10.52
2019-04-27T05:55:49.386Z,10.52
2019-04-27T06:00:54.970Z,10.47
2019-04-27T06:06:01.713Z,10.45
2019-04-27T06:11:05.731Z,10.45
2019-04-27T06:16:10.274Z,10.41
2019-04-27T06:21:14.718Z,10.39
2019-04-27T06:26:20.137Z,10.39
2019-04-27T06:31:24.921Z,10.37
2019-04-27T06:36:29.424Z,10.41
2019-04-27T06:41:34.193Z,10.50
2019-04-27T06:46:40.337Z,10.57
2019-04-27T06:51:45.153Z,10.64
2019-04-27T06:56:50.140Z,10.65
2019-04-27T07:01:55.624Z,10.69
2019-04-27T07:07:01.671Z,10.71
2019-04-27T07:12:06.545Z,10.69
2019-04-27T07:17:11.079Z,10.69
2019-04-27T07:22:15.646Z,10.66
2019-04-27T07:27:21.310Z,10.62
2019-04-27T07:32:26.052Z,10.53
2019-04-27T07:37:30.744Z,10.46
2019-04-27T07:42:35.307Z,10.43
2019-04-27T07:47:41.496Z,10.34
2019-04-27T07:52:48.602Z,10.34
2019-04-27T07:57:54.342Z,10.35
2019-04-27T08:02:58.887Z,10.42
2019-04-27T08:08:03.388Z,10.47
2019-04-27T08:13:09.494Z,10.48
2019-04-27T08:18:14.406Z,10.58
2019-04-27T08:23:19.555Z,10.71
2019-04-27T08:28:34.797Z,10.91
2019-04-27T08:33:39.219Z,10.98
2019-04-27T08:38:43.713Z,11.09
2019-04-27T08:43:48.813Z,11.14
2019-04-27T08:48:54.385Z,11.18
2019-04-27T08:53:59.178Z,11.23
2019-04-27T08:59:03.806Z,11.18
2019-04-27T09:04:09.239Z,11.21
2019-04-27T09:09:32.256Z,11.20
2019-04-27T09:14:44.302Z,11.18
2019-04-27T09:20:02.293Z,11.25
2019-04-27T09:25:07.189Z,11.24
2019-04-27T09:30:12.057Z,11.15
2019-04-27T09:35:16.707Z,11.17
2019-04-27T09:40:22.141Z,11.13
2019-04-27T09:45:27.195Z,11.12
2019-04-27T09:50:32.535Z,11.15
2019-04-27T09:55:38.258Z,11.09
2019-04-27T10:00:42.906Z,11.01
2019-04-27T10:05:47.404Z,11.05
2019-04-27T10:10:52.010Z,11.16
2019-04-27T10:15:56.582Z,11.23
2019-04-27T10:21:02.210Z,11.30
2019-04-27T10:26:08.057Z,11.36
2019-04-27T10:31:12.644Z,11.23
2019-04-27T10:36:18.911Z,11.36
2019-04-27T10:41:23.418Z,11.43
2019-04-27T10:46:27.933Z,11.49
2019-04-27T10:51:32.534Z,11.50
2019-04-27T10:56:37.036Z,11.53
2019-04-27T11:01:41.925Z,11.64
2019-04-27T11:06:54.294Z,11.81
2019-04-27T11:11:59.940Z,11.99
2019-04-27T11:17:06.495Z,11.94
2019-04-27T11:22:10.923Z,11.93
2019-04-27T11:27:15.377Z,11.93
2019-04-27T11:32:19.909Z,11.96
2019-04-27T11:37:26.080Z,12.07
2019-04-27T11:42:30.627Z,12.49
2019-04-27T11:47:36.532Z,12.88
2019-04-27T11:52:41.278Z,13.11
2019-04-27T11:57:47.048Z,13.21
2019-04-27T12:02:51.809Z,13.58
2019-04-27T12:07:56.267Z,14.15
2019-04-27T12:13:00.723Z,13.97
2019-04-27T12:18:08.855Z,13.73
2019-04-27T12:23:11.720Z,13.59
2019-04-27T12:28:33.009Z,13.61
2019-04-27T12:33:38.398Z,13.46
2019-04-27T12:38:42.940Z,13.52
2019-04-27T12:43:47.653Z,13.63
2019-04-27T12:48:54.513Z,14.22
2019-04-27T12:54:00.090Z,14.22
2019-04-27T12:59:06.647Z,14.14
2019-04-27T13:04:11.183Z,13.96
2019-04-27T13:09:17.347Z,14.05
2019-04-27T13:14:21.912Z,14.10
2019-04-27T13:19:36.556Z,14.28
2019-04-27T13:24:41.344Z,14.28
2019-04-27T13:29:46.648Z,14.30
2019-04-27T13:34:52.376Z,14.06
2019-04-27T13:40:06.070Z,14.02
2019-04-27T13:45:16.593Z,13.89
2019-04-27T13:50:25.955Z,14.04
2019-04-27T13:55:30.713Z,14.24
2019-04-27T14:00:37.890Z,14.25
2019-04-27T14:05:42.724Z,14.39
2019-04-27T14:10:47.230Z,14.30
2019-04-27T14:15:51.935Z,14.02
2019-04-27T14:20:56.399Z,14.02
2019-04-27T14:26:00.894Z,14.09
2019-04-27T14:31:05.404Z,14.45
2019-04-27T14:36:10.068Z,14.45
2019-04-27T14:41:15.289Z,14.61
2019-04-27T14:46:20.060Z,15.06
2019-04-27T14:51:24.625Z,15.17
2019-04-27T14:56:29.228Z,15.15
2019-04-27T15:01:33.732Z,15.00
2019-04-27T15:06:38.291Z,15.20
2019-04-27T15:11:42.894Z,15.22
2019-04-27T15:16:49.633Z,15.25
2019-04-27T15:21:58.641Z,15.13
2019-04-27T15:27:02.156Z,15.14
2019-04-27T15:32:24.070Z,14.90
2019-04-27T15:37:36.026Z,14.85
2019-04-27T15:42:50.545Z,14.79
2019-04-27T15:47:54.247Z,14.81
2019-04-27T15:52:54.541Z,14.74
2019-04-27T15:57:58.987Z,14.87
2019-04-27T16:03:03.685Z,15.73
2019-04-27T16:08:15.160Z,15.77
2019-04-27T16:13:15.233Z,15.58
2019-04-27T16:18:19.999Z,15.24
2019-04-27T16:23:24.604Z,15.01
2019-04-27T16:28:29.182Z,14.80
2019-04-27T16:33:34.809Z,14.75
2019-04-27T16:38:41.103Z,15.23
2019-04-27T16:43:45.810Z,15.82
2019-04-27T16:48:51.468Z,15.90
2019-04-27T16:53:56.201Z,15.77
2019-04-27T16:59:20.893Z,15.35
2019-04-27T17:04:11.370Z,14.87
2019-04-27T17:09:14.662Z,14.61
2019-04-27T17:14:22.660Z,14.30
2019-04-27T17:19:35.778Z,14.14
2019-04-27T17:24:45.244Z,14.04
2019-04-27T17:29:50.016Z,13.86
2019-04-27T17:34:51.065Z,13.51
2019-04-27T17:39:59.517Z,13.22
2019-04-27T17:45:01.904Z,12.98
2019-04-27T17:50:09.369Z,12.75
2019-04-27T17:55:17.867Z,12.56
2019-04-27T18:00:20.627Z,12.40
2019-04-27T18:05:25.239Z,12.24
2019-04-27T18:10:29.791Z,12.16
2019-04-27T18:15:34.367Z,12.11
2019-04-27T18:20:39.036Z,12.09
2019-04-27T18:25:45.294Z,12.05
2019-04-27T18:30:54.176Z,11.97
2019-04-27T18:36:05.605Z,11.86
2019-04-27T18:41:08.043Z,11.72
2019-04-27T18:46:14.743Z,11.62
2019-04-27T18:51:26.876Z,11.65
2019-04-27T18:56:33.306Z,11.63
2019-04-27T19:01:38.634Z,11.61
2019-04-27T19:06:43.141Z,11.56
2019-04-27T19:11:56.297Z,11.48
2019-04-27T19:16:54.804Z,11.43
2019-04-27T19:21:59.394Z,11.35
2019-04-27T19:27:18.279Z,11.25
2019-04-27T19:32:17.849Z,11.12
2019-04-27T19:37:22.366Z,10.96
2019-04-27T19:42:28.597Z,10.81
2019-04-27T19:47:34.142Z,10.70
2019-04-27T19:52:38.942Z,10.59
2019-04-27T19:57:43.720Z,10.53
2019-04-27T20:02:48.643Z,10.46
2019-04-27T20:07:53.220Z,10.43
2019-04-27T20:12:57.765Z,10.39
2019-04-27T20:18:02.427Z,10.37
2019-04-27T20:23:06.925Z,10.35
2019-04-27T20:28:12.063Z,10.35
2019-04-27T20:33:16.962Z,10.36
2019-04-27T20:38:21.539Z,10.41
2019-04-27T20:43:26.153Z,10.41
2019-04-27T20:48:31.266Z,10.41
2019-04-27T20:53:46.571Z,10.44
2019-04-27T20:58:51.188Z,10.37
2019-04-27T21:03:57.397Z,10.18
2019-04-27T21:09:06.637Z,10.07
2019-04-27T21:14:12.708Z,9.97
2019-04-27T21:19:17.353Z,9.87
2019-04-27T21:24:22.807Z,9.82
2019-04-27T21:29:27.536Z,9.79
2019-04-27T21:34:32.058Z,9.71
2019-04-27T21:39:36.535Z,9.59
2019-04-27T21:44:42.056Z,9.53
2019-04-27T21:49:47.594Z,9.50
2019-04-27T21:54:53.172Z,9.45
2019-04-27T21:59:57.698Z,9.41
2019-04-27T22:05:02.471Z,9.42
2019-04-27T22:10:10.598Z,9.42
2019-04-27T22:15:15.288Z,9.41
2019-04-27T22:20:20.813Z,9.38
2019-04-27T22:25:27.030Z,9.36
2019-04-27T22:30:31.521Z,9.32
2019-04-27T22:35:35.978Z,9.27
2019-04-27T22:40:45.176Z,9.24
2019-04-27T22:45:51.049Z,9.22
2019-04-27T22:50:56.010Z,9.23
2019-04-27T22:56:13.304Z,9.18
2019-04-27T23:01:22.163Z,9.14
2019-04-27T23:06:26.609Z,9.11
2019-04-27T23:11:31.474Z,9.06
2019-04-27T23:16:37.683Z,9.09
2019-04-27T23:21:42.110Z,9.13
2019-04-27T23:26:46.563Z,9.10
2019-04-27T23:31:58.723Z,9.09
2019-04-27T23:37:03.182Z,9.03
2019-04-27T23:42:08.486Z,8.99
2019-04-27T23:47:12.924Z,8.98
2019-04-27T23:52:21.724Z,8.97
2019-04-27T23:57:27.293Z,8.96
